Time;durP1;ratioP1;P1;durP2;ratioP2;P2;SDS_P1;SDS_P2;PMS_P1;PMS_P2;Temp;Humidity;BMP_temperature;BMP_pressure;BME280_temperature;BME280_humidity;BME280_pressure;Samples;Min_cycle;Max_cycle;Signal;HPM_P1;HPM_P2
2023/03/27 00:00:26;;;;;;;8.17;1.73;;;7.00;99.90;;;;;;5047255;28;20345;-31
2023/03/27 00:02:53;;;;;;;7.13;1.63;;;7.00;99.90;;;;;;5047140;28;20734;-32
2023/03/27 00:05:23;;;;;;;9.50;1.87;;;7.10;99.90;;;;;;5045571;28;20208;-31
2023/03/27 00:07:56;;;;;;;5.47;1.80;;;7.10;99.90;;;;;;5047179;28;20250;-32
2023/03/27 00:10:23;;;;;;;4.20;1.67;;;7.10;99.90;;;;;;5045985;28;20216;-32
2023/03/27 00:12:54;;;;;;;9.80;1.90;;;7.10;99.90;;;;;;5045744;28;20262;-32
2023/03/27 00:15:26;;;;;;;5.67;1.80;;;7.10;99.90;;;;;;5047147;28;20245;-32
2023/03/27 00:17:58;;;;;;;10.83;1.67;;;7.10;99.90;;;;;;5044368;28;20208;-32
2023/03/27 00:20:25;;;;;;;8.87;1.70;;;7.10;99.90;;;;;;5046887;28;20207;-31
2023/03/27 00:22:59;;;;;;;7.13;1.70;;;7.10;99.90;;;;;;5045503;28;20287;-31
2023/03/27 00:25:31;;;;;;;8.03;1.53;;;7.10;99.90;;;;;;5045358;28;20231;-32
2023/03/27 00:28:01;;;;;;;12.27;1.83;;;7.10;99.90;;;;;;5045602;28;20218;-32
2023/03/27 00:30:30;;;;;;;7.80;1.60;;;7.20;99.90;;;;;;5046674;28;20192;-31
2023/03/27 00:32:57;;;;;;;7.27;1.57;;;7.10;99.90;;;;;;5045104;28;20244;-32
2023/03/27 00:35:28;;;;;;;7.37;1.60;;;7.20;99.90;;;;;;5045148;28;20208;-32
2023/03/27 00:38:02;;;;;;;10.27;2.00;;;7.20;99.90;;;;;;5046712;28;20610;-32
2023/03/27 00:40:32;;;;;;;8.37;1.60;;;7.20;99.90;;;;;;5046773;28;20539;-32
2023/03/27 00:43:01;;;;;;;8.17;1.70;;;7.20;99.90;;;;;;5044541;28;20287;-32
2023/03/27 00:45:32;;;;;;;7.80;1.90;;;7.20;99.90;;;;;;5046036;28;20738;-31
2023/03/27 00:48:05;;;;;;;7.37;1.40;;;7.10;99.90;;;;;;5045083;28;20283;-32
2023/03/27 00:50:45;;;;;;;9.03;1.97;;;7.10;99.90;;;;;;5046492;28;20199;-31
2023/03/27 00:53:18;;;;;;;8.97;1.87;;;7.10;99.90;;;;;;5045176;28;20573;-31
2023/03/27 00:55:53;;;;;;;9.13;1.27;;;7.10;99.90;;;;;;5046185;28;20236;-32
2023/03/27 00:58:31;;;;;;;8.00;1.75;;;7.10;99.90;;;;;;5038086;28;20820;-32
2023/03/27 01:00:59;;;;;;;5.60;1.30;;;7.30;99.90;;;;;;5039587;28;20698;-32
2023/03/27 01:03:31;;;;;;;9.63;1.90;;;7.30;99.90;;;;;;5028331;28;20220;-32
2023/03/27 01:06:04;;;;;;;11.13;2.23;;;7.30;99.90;;;;;;5045116;28;20820;-32
2023/03/27 01:08:32;;;;;;;9.77;1.73;;;7.20;99.90;;;;;;5030987;28;20627;-32
2023/03/27 01:11:29;;;;;;;8.70;1.67;;;7.20;99.90;;;;;;5044679;28;20705;-31
2023/03/27 01:14:09;;;;;;;6.80;1.60;;;7.20;99.90;;;;;;5045535;28;20307;-31
2023/03/27 01:17:00;;;;;;;6.80;1.23;;;7.20;99.90;;;;;;5031226;28;20208;-32
2023/03/27 01:19:43;;;;;;;6.33;1.67;;;7.20;99.90;;;;;;5045450;28;20232;-32
2023/03/27 01:22:31;;;;;;;6.73;2.00;;;7.30;99.90;;;;;;5045204;28;20220;-32
2023/03/27 01:25:49;;;;;;;6.77;1.50;;;7.30;99.90;;;;;;5045283;28;20227;-32
2023/03/27 01:28:19;;;;;;;8.50;1.67;;;7.30;99.90;;;;;;5023525;28;20258;-33
2023/03/27 01:31:08;;;;;;;10.17;1.67;;;7.30;99.90;;;;;;5029334;28;20227;-32
2023/03/27 01:33:39;;;;;;;4.27;1.40;;;7.30;99.90;;;;;;5027197;28;20737;-32
2023/03/27 01:36:27;;;;;;;8.03;1.60;;;7.30;99.90;;;;;;5029570;28;20196;-31
2023/03/27 01:39:19;;;;;;;6.93;2.23;;;7.40;99.90;;;;;;5027899;28;20248;-32
2023/03/27 01:42:05;;;;;;;6.93;1.57;;;7.30;99.90;;;;;;5028154;28;20321;-32
2023/03/27 01:44:44;;;;;;;8.33;1.30;;;7.30;99.90;;;;;;5029246;28;20239;-32
2023/03/27 01:47:35;;;;;;;5.47;1.37;;;7.30;99.90;;;;;;5029719;28;20283;-32
2023/03/27 01:50:22;;;;;;;7.23;2.00;;;7.30;99.90;;;;;;5027723;28;20209;-32
2023/03/27 01:53:03;;;;;;;8.50;2.00;;;7.30;99.90;;;;;;5027962;28;20275;-32
2023/03/27 01:55:35;;;;;;;8.67;1.97;;;7.30;99.90;;;;;;5029173;28;20241;-31
2023/03/27 01:58:12;;;;;;;6.97;1.70;;;7.40;99.90;;;;;;5027891;28;20643;-32
2023/03/27 02:00:44;;;;;;;8.20;1.90;;;7.40;99.90;;;;;;5029428;28;20205;-32
2023/03/27 02:03:36;;;;;;;8.40;2.03;;;7.30;99.90;;;;;;5027834;28;20532;-32
2023/03/27 02:06:19;;;;;;;7.40;1.40;;;7.30;99.90;;;;;;5027407;28;20270;-32
2023/03/27 02:09:10;;;;;;;11.90;1.87;;;7.40;99.90;;;;;;5027332;28;20201;-32
2023/03/27 02:12:06;;;;;;;10.60;2.03;;;7.30;99.90;;;;;;5027475;28;20266;-32
2023/03/27 02:14:39;;;;;;;7.47;1.40;;;7.30;99.90;;;;;;5028504;28;20231;-33
2023/03/27 02:17:11;;;;;;;5.30;1.00;;;7.30;99.90;;;;;;5029283;28;20205;-32
2023/03/27 02:20:10;;;;;;;4.17;1.00;;;7.20;99.90;;;;;;5029183;28;20228;-32
2023/03/27 02:22:47;;;;;;;6.67;1.50;;;7.20;99.90;;;;;;5029205;28;20208;-32
2023/03/27 02:25:30;;;;;;;4.33;1.17;;;7.20;99.90;;;;;;5027575;28;20251;-31
2023/03/27 02:28:21;;;;;;;6.17;1.20;;;7.20;99.90;;;;;;5029237;28;20255;-32
2023/03/27 02:31:38;;;;;;;4.27;1.50;;;7.20;99.90;;;;;;5029097;28;20209;-31
2023/03/27 02:34:27;;;;;;;7.20;1.10;;;7.20;99.90;;;;;;5027539;28;20254;-32
2023/03/27 02:37:18;;;;;;;3.33;1.03;;;7.20;99.90;;;;;;5027289;28;20679;-32
2023/03/27 02:40:08;;;;;;;4.03;1.20;;;7.20;99.90;;;;;;5028804;28;20292;-31
2023/03/27 02:42:54;;;;;;;3.43;1.10;;;7.20;99.90;;;;;;5027179;28;20217;-31
2023/03/27 02:45:28;;;;;;;5.37;1.20;;;7.20;99.90;;;;;;5028703;28;20256;-31
2023/03/27 02:48:22;;;;;;;2.70;1.00;;;7.10;99.90;;;;;;5028723;28;20196;-31
2023/03/27 02:51:00;;;;;;;5.37;1.10;;;7.20;99.90;;;;;;5029217;28;20213;-31
2023/03/27 02:53:44;;;;;;;4.67;1.20;;;7.20;99.90;;;;;;5027417;28;20656;-32
2023/03/27 02:56:15;;;;;;;5.50;1.20;;;7.20;99.90;;;;;;5029047;28;20746;-32
2023/03/27 02:59:04;;;;;;;4.47;1.40;;;7.20;99.90;;;;;;5027277;28;20220;-32
2023/03/27 03:01:32;;;;;;;7.30;1.53;;;7.30;99.90;;;;;;5026988;28;20232;-31
2023/03/27 03:04:09;;;;;;;4.63;1.00;;;7.30;99.90;;;;;;5028533;28;20259;-31
2023/03/27 03:06:41;;;;;;;5.43;1.40;;;7.30;99.90;;;;;;5028359;28;20248;-31
2023/03/27 03:09:13;;;;;;;5.27;1.20;;;7.30;99.90;;;;;;5028235;28;20221;-32
2023/03/27 03:11:54;;;;;;;8.73;1.87;;;7.40;99.90;;;;;;5026730;28;20635;-32
2023/03/27 03:14:28;;;;;;;5.17;1.30;;;7.40;99.90;;;;;;5028030;28;20569;-32
2023/03/27 03:17:00;;;;;;;11.20;2.00;;;7.40;99.90;;;;;;5028181;28;20216;-32
2023/03/27 03:19:28;;;;;;;5.10;1.33;;;7.40;99.90;;;;;;5026632;28;20201;-32
2023/03/27 03:22:00;;;;;;;5.37;1.30;;;7.50;99.90;;;;;;5027024;28;20209;-32
2023/03/27 03:24:28;;;;;;;6.23;1.80;;;7.50;99.90;;;;;;5027951;28;20225;-32
2023/03/27 03:26:56;;;;;;;9.87;1.80;;;7.50;99.90;;;;;;5027986;28;20229;-32
2023/03/27 03:29:34;;;;;;;6.53;1.63;;;7.50;99.90;;;;;;5026780;28;20193;-31
2023/03/27 03:32:07;;;;;;;6.03;2.07;;;7.50;99.90;;;;;;5028534;28;20652;-32
2023/03/27 03:34:34;;;;;;;5.60;1.53;;;7.50;99.90;;;;;;5026616;28;20212;-32
2023/03/27 03:37:02;;;;;;;6.80;1.87;;;7.50;99.90;;;;;;5028005;28;20208;-31
2023/03/27 03:39:29;;;;;;;4.27;1.90;;;7.50;99.90;;;;;;5028240;28;20733;-32
2023/03/27 03:41:56;;;;;;;6.47;1.73;;;7.50;99.90;;;;;;5026319;28;20586;-32
2023/03/27 03:44:24;;;;;;;6.33;2.17;;;7.50;99.90;;;;;;5028000;28;20639;-32
2023/03/27 03:46:51;;;;;;;6.67;2.20;;;7.50;99.90;;;;;;5027688;28;20319;-32
2023/03/27 03:49:18;;;;;;;8.00;1.87;;;7.40;99.90;;;;;;5027636;28;20213;-32
2023/03/27 03:51:45;;;;;;;5.90;1.70;;;7.40;99.90;;;;;;5027378;28;20291;-32
2023/03/27 03:54:32;;;;;;;8.10;1.90;;;7.50;99.90;;;;;;5027386;28;20212;-32
2023/03/27 03:57:02;;;;;;;4.40;1.90;;;7.40;99.90;;;;;;5027313;28;20313;-32
2023/03/27 03:59:31;;;;;;;3.30;1.70;;;7.40;99.90;;;;;;5027438;28;20334;-31
2023/03/27 04:02:01;;;;;;;9.97;2.63;;;7.40;99.90;;;;;;5027247;28;20299;-31
2023/03/27 04:04:34;;;;;;;6.93;1.80;;;7.40;99.90;;;;;;5027585;28;20251;-32
2023/03/27 04:07:04;;;;;;;6.43;2.00;;;7.40;99.90;;;;;;5025344;28;20252;-32
2023/03/27 04:09:35;;;;;;;5.00;2.00;;;7.40;99.90;;;;;;5027331;28;20291;-32
2023/03/27 04:12:06;;;;;;;5.83;1.70;;;7.40;99.90;;;;;;5026019;28;20558;-31
2023/03/27 04:14:36;;;;;;;3.53;1.40;;;7.30;99.90;;;;;;5027395;28;20205;-31
2023/03/27 04:17:05;;;;;;;4.97;1.43;;;7.30;99.90;;;;;;5025480;28;20559;-32
2023/03/27 04:19:37;;;;;;;4.83;1.63;;;7.40;99.90;;;;;;5025548;28;20197;-31
2023/03/27 04:22:05;;;;;;;4.30;1.50;;;7.30;99.90;;;;;;5025577;28;20705;-31
2023/03/27 04:24:43;;;;;;;3.53;1.40;;;7.30;99.90;;;;;;5027229;28;20208;-31
2023/03/27 04:27:12;;;;;;;4.63;2.03;;;7.30;99.90;;;;;;5026591;28;20718;-32
2023/03/27 04:29:46;;;;;;;6.20;1.60;;;7.20;99.90;;;;;;5026793;28;20309;-31
2023/03/27 04:32:21;;;;;;;6.17;1.70;;;7.20;99.90;;;;;;5026677;28;20284;-31
2023/03/27 04:34:54;;;;;;;3.87;1.27;;;7.10;99.90;;;;;;5026750;28;20197;-32
2023/03/27 04:37:23;;;;;;;6.10;1.47;;;7.10;99.90;;;;;;5025522;28;20213;-31
2023/03/27 04:39:51;;;;;;;2.77;1.10;;;7.10;99.90;;;;;;5026409;28;20296;-31
2023/03/27 04:42:22;;;;;;;8.37;1.43;;;7.20;99.90;;;;;;5025194;28;20204;-31
2023/03/27 04:44:52;;;;;;;2.20;1.00;;;7.10;99.90;;;;;;5026505;28;20219;-32
2023/03/27 04:47:22;;;;;;;4.80;1.33;;;7.10;99.90;;;;;;5025046;28;20310;-31
2023/03/27 04:49:52;;;;;;;4.33;1.20;;;7.10;99.90;;;;;;5024877;28;20216;-31
2023/03/27 04:52:28;;;;;;;6.83;1.60;;;7.20;99.90;;;;;;5025116;28;20268;-32
2023/03/27 04:55:00;;;;;;;5.77;1.37;;;7.20;99.90;;;;;;5026062;28;20657;-32
2023/03/27 04:57:31;;;;;;;10.67;1.90;;;7.20;99.90;;;;;;5026780;28;20668;-31
2023/03/27 05:00:12;;;;;;;4.80;1.20;;;7.10;99.90;;;;;;5024426;28;20619;-31
2023/03/27 05:02:40;;;;;;;6.90;1.23;;;7.10;99.90;;;;;;5025889;28;20211;-31
2023/03/27 05:05:13;;;;;;;6.67;1.30;;;7.10;99.90;;;;;;5026107;28;20252;-32
2023/03/27 05:07:44;;;;;;;2.80;1.27;;;7.00;99.90;;;;;;5025968;28;20229;-31
2023/03/27 05:10:16;;;;;;;5.80;1.47;;;7.00;99.90;;;;;;5026183;28;20231;-32
2023/03/27 05:12:52;;;;;;;3.47;1.30;;;7.00;99.90;;;;;;5024776;28;20293;-32
2023/03/27 05:15:23;;;;;;;3.37;1.20;;;7.00;99.90;;;;;;5026182;28;20901;-32
2023/03/27 05:17:53;;;;;;;4.67;1.10;;;7.00;99.90;;;;;;5024321;28;20232;-31
2023/03/27 05:20:28;;;;;;;4.47;1.40;;;7.00;99.90;;;;;;5024811;28;20189;-35
2023/03/27 05:22:55;;;;;;;6.23;1.53;;;7.00;99.90;;;;;;5024231;28;20691;-32
2023/03/27 05:25:32;;;;;;;2.53;1.37;;;7.10;99.90;;;;;;5026251;28;20595;-31
2023/03/27 05:28:01;;;;;;;2.87;1.20;;;7.10;99.90;;;;;;5025913;28;20197;-32
2023/03/27 05:30:29;;;;;;;4.70;1.50;;;7.10;99.90;;;;;;5025976;28;20215;-32
2023/03/27 05:32:58;;;;;;;4.00;1.37;;;7.10;99.90;;;;;;5025412;28;20267;-32
2023/03/27 05:35:27;;;;;;;5.43;1.50;;;7.10;99.90;;;;;;5025476;28;20761;-31
2023/03/27 05:37:56;;;;;;;5.43;1.20;;;7.10;99.90;;;;;;5024060;28;20209;-38
2023/03/27 05:40:27;;;;;;;3.37;1.30;;;7.10;99.90;;;;;;5024198;28;20205;-33
2023/03/27 05:42:58;;;;;;;2.97;1.20;;;7.10;99.90;;;;;;5023841;28;20300;-32
2023/03/27 05:45:29;;;;;;;4.50;1.30;;;7.10;99.90;;;;;;5025565;28;20200;-31
2023/03/27 05:48:00;;;;;;;3.03;1.00;;;7.10;99.90;;;;;;5025407;28;20657;-32
2023/03/27 05:50:32;;;;;;;4.67;1.57;;;7.10;99.90;;;;;;5025398;28;20753;-32
2023/03/27 05:53:04;;;;;;;5.43;1.30;;;7.10;99.90;;;;;;5023866;28;20205;-32
2023/03/27 05:55:33;;;;;;;5.70;1.33;;;7.10;99.90;;;;;;5025105;28;20327;-32
2023/03/27 05:58:08;;;;;;;5.73;1.20;;;7.10;99.90;;;;;;5024185;28;20208;-32
2023/03/27 06:00:37;;;;;;;3.83;1.40;;;7.00;99.90;;;;;;5025585;28;20196;-32
2023/03/27 06:03:05;;;;;;;2.67;1.20;;;7.00;99.90;;;;;;5025816;28;20223;-31
2023/03/27 06:05:35;;;;;;;5.07;1.37;;;7.10;99.90;;;;;;5025588;28;20200;-34
2023/03/27 06:08:05;;;;;;;6.23;1.23;;;7.00;99.90;;;;;;5023980;28;20256;-33
2023/03/27 06:10:32;;;;;;;2.57;1.00;;;7.00;99.90;;;;;;5008223;28;20224;-33
2023/03/27 06:13:05;;;;;;;3.27;1.27;;;7.00;99.90;;;;;;5024215;28;20632;-34
2023/03/27 06:15:33;;;;;;;2.07;0.90;;;7.00;99.90;;;;;;5026468;28;20221;-34
2023/03/27 06:18:03;;;;;;;3.07;0.90;;;6.90;99.90;;;;;;5029554;28;20628;-34
2023/03/27 06:20:30;;;;;;;2.00;0.70;;;6.90;99.90;;;;;;5027444;28;20303;-34
2023/03/27 06:23:02;;;;;;;3.63;0.70;;;6.90;99.90;;;;;;5029310;28;20311;-34
2023/03/27 06:25:33;;;;;;;2.20;0.60;;;6.90;99.90;;;;;;5027714;28;20239;-34
2023/03/27 06:28:03;;;;;;;3.57;0.80;;;6.90;99.90;;;;;;5028804;28;20283;-34
2023/03/27 06:30:32;;;;;;;2.27;0.60;;;6.90;99.90;;;;;;5027260;28;20224;-33
2023/03/27 06:33:00;;;;;;;1.93;0.50;;;6.90;99.90;;;;;;5028551;28;20205;-34
2023/03/27 06:35:29;;;;;;;1.37;0.50;;;7.00;99.90;;;;;;5028877;28;20204;-34
2023/03/27 06:38:01;;;;;;;2.33;0.83;;;6.90;99.90;;;;;;5028908;28;20212;-33
2023/03/27 06:40:30;;;;;;;2.20;0.70;;;6.90;99.90;;;;;;5027701;28;20213;-34
2023/03/27 06:43:07;;;;;;;1.67;0.83;;;6.80;99.90;;;;;;5027475;28;20197;-35
2023/03/27 06:45:38;;;;;;;3.53;0.70;;;6.80;99.90;;;;;;5029096;28;20206;-35
2023/03/27 06:48:06;;;;;;;2.77;0.90;;;6.80;99.90;;;;;;5028912;28;20597;-35
2023/03/27 06:50:47;;;;;;;3.40;0.90;;;6.80;99.90;;;;;;5028519;28;20231;-35
2023/03/27 06:53:16;;;;;;;2.93;1.00;;;6.70;99.90;;;;;;5028433;28;20729;-35
2023/03/27 06:55:55;;;;;;;2.57;0.73;;;6.70;99.90;;;;;;5026754;28;20651;-33
2023/03/27 06:58:28;;;;;;;2.30;0.90;;;6.70;99.90;;;;;;5026634;28;20211;-33
2023/03/27 07:00:55;;;;;;;1.40;0.60;;;6.80;99.90;;;;;;5026651;28;20225;-33
2023/03/27 07:03:24;;;;;;;2.70;1.00;;;6.70;99.90;;;;;;5026178;28;20205;-34
2023/03/27 07:05:56;;;;;;;3.50;0.83;;;6.70;99.90;;;;;;5028188;28;20295;-33
2023/03/27 07:08:24;;;;;;;2.13;1.00;;;6.70;99.90;;;;;;5026239;28;20730;-34
2023/03/27 07:10:53;;;;;;;2.33;1.00;;;6.80;99.90;;;;;;5026177;28;20308;-34
2023/03/27 07:13:42;;;;;;;1.47;0.57;;;6.70;99.90;;;;;;5027652;28;20240;-33
2023/03/27 07:16:13;;;;;;;2.57;0.90;;;6.80;99.90;;;;;;5026587;28;20193;-34
2023/03/27 07:18:40;;;;;;;4.70;1.40;;;6.70;99.90;;;;;;5027468;28;20247;-35
2023/03/27 07:21:14;;;;;;;2.83;1.10;;;6.70;99.90;;;;;;5026272;28;20564;-35
2023/03/27 07:23:44;;;;;;;5.47;1.00;;;6.80;99.90;;;;;;5027622;28;20196;-35
2023/03/27 07:26:14;;;;;;;4.47;1.13;;;6.80;99.90;;;;;;5027443;28;20255;-34
2023/03/27 07:28:46;;;;;;;2.33;1.00;;;6.80;99.90;;;;;;5027360;28;20261;-34
2023/03/27 07:31:13;;;;;;;3.83;1.30;;;6.80;99.90;;;;;;5025712;28;20209;-34
2023/03/27 07:34:02;;;;;;;2.50;1.30;;;6.80;99.90;;;;;;5027250;28;20207;-33
2023/03/27 07:36:32;;;;;;;5.90;1.57;;;6.80;99.90;;;;;;5025660;28;20200;-34
2023/03/27 07:39:00;;;;;;;4.67;1.47;;;6.90;99.90;;;;;;5026112;28;20193;-33
2023/03/27 07:41:29;;;;;;;2.70;1.17;;;6.90;99.90;;;;;;5026070;28;20224;-33
2023/03/27 07:44:01;;;;;;;3.53;1.40;;;6.90;99.90;;;;;;5026743;28;20243;-34
2023/03/27 07:46:31;;;;;;;3.93;1.20;;;7.00;99.90;;;;;;5025585;28;20196;-34
2023/03/27 07:49:01;;;;;;;4.33;1.20;;;7.10;99.90;;;;;;5025616;28;20224;-33
2023/03/27 07:51:28;;;;;;;5.17;1.20;;;7.10;99.90;;;;;;5025218;28;20209;-34
2023/03/27 07:54:00;;;;;;;7.67;1.10;;;7.20;99.90;;;;;;5025281;28;20193;-34
2023/03/27 07:56:31;;;;;;;3.77;1.50;;;7.20;99.90;;;;;;5025060;28;20715;-34
2023/03/27 07:59:03;;;;;;;2.80;1.30;;;7.20;99.90;;;;;;5026855;28;20201;-33
2023/03/27 08:01:31;;;;;;;4.57;1.17;;;7.30;99.90;;;;;;5009762;28;20208;-34
2023/03/27 08:04:01;;;;;;;5.00;1.30;;;7.30;99.90;;;;;;5026698;28;20209;-34
2023/03/27 08:06:33;;;;;;;5.60;0.80;;;7.30;99.90;;;;;;5009320;28;20232;-34
2023/03/27 08:09:05;;;;;;;1.33;0.80;;;7.30;99.90;;;;;;5027230;28;20669;-33
2023/03/27 08:11:36;;;;;;;4.47;0.70;;;7.40;99.90;;;;;;5026682;28;20212;-34
2023/03/27 08:14:08;;;;;;;1.80;0.60;;;7.40;99.90;;;;;;5026799;28;20208;-34
2023/03/27 08:16:36;;;;;;;2.60;0.73;;;7.30;99.90;;;;;;5024860;28;20291;-34
2023/03/27 08:19:08;;;;;;;2.27;0.70;;;7.30;99.90;;;;;;5026363;28;20224;-33
2023/03/27 08:21:37;;;;;;;1.93;0.60;;;7.30;99.90;;;;;;5024805;28;20251;-34
2023/03/27 08:24:08;;;;;;;1.77;0.50;;;7.30;99.90;;;;;;5026199;28;20221;-34
2023/03/27 08:26:35;;;;;;;1.97;0.60;;;7.20;99.90;;;;;;5026027;28;20204;-34
2023/03/27 08:29:03;;;;;;;3.80;0.63;;;7.20;99.90;;;;;;5026334;28;20193;-34
2023/03/27 08:31:36;;;;;;;1.83;0.50;;;7.20;99.90;;;;;;5026227;28;20220;-33
2023/03/27 08:34:05;;;;;;;4.10;0.67;;;7.20;99.90;;;;;;5024698;28;20213;-34
2023/03/27 08:36:34;;;;;;;1.90;0.60;;;7.20;99.90;;;;;;5024571;28;20243;-34
2023/03/27 08:39:02;;;;;;;2.50;0.60;;;7.10;99.90;;;;;;5025678;28;20201;-34
2023/03/27 08:41:39;;;;;;;3.73;0.90;;;7.10;99.90;;;;;;5025777;28;20809;-34
2023/03/27 08:44:13;;;;;;;3.90;0.80;;;7.10;99.90;;;;;;5026059;28;20342;-34
2023/03/27 08:46:55;;;;;;;3.53;1.00;;;7.10;99.90;;;;;;5025971;28;20196;-33
2023/03/27 08:49:33;;;;;;;3.97;1.30;;;7.10;99.90;;;;;;5024282;28;20208;-34
2023/03/27 08:52:14;;;;;;;5.53;1.40;;;7.10;99.90;;;;;;5024902;28;20215;-34
2023/03/27 08:54:45;;;;;;;4.17;1.43;;;7.10;99.90;;;;;;5023922;28;20730;-33
2023/03/27 08:57:22;;;;;;;2.57;1.20;;;7.20;99.90;;;;;;5024262;28;20256;-34
2023/03/27 08:59:58;;;;;;;5.33;1.30;;;7.20;99.90;;;;;;5026093;28;20278;-33
2023/03/27 09:02:39;;;;;;;5.00;1.40;;;7.30;99.90;;;;;;5025695;28;20209;-34
2023/03/27 09:05:22;;;;;;;4.30;1.60;;;7.30;99.90;;;;;;5025684;28;20208;-33
2023/03/27 09:08:04;;;;;;;4.37;1.60;;;7.40;99.90;;;;;;5025909;28;20232;-34
2023/03/27 09:10:39;;;;;;;8.20;1.70;;;7.40;99.90;;;;;;5026132;28;20271;-34
2023/03/27 09:13:22;;;;;;;4.57;1.73;;;7.50;99.90;;;;;;5026353;28;20200;-34
2023/03/27 09:15:59;;;;;;;5.97;1.67;;;7.60;99.90;;;;;;5024782;28;20741;-34
2023/03/27 09:18:35;;;;;;;7.97;1.57;;;7.60;99.90;;;;;;5025865;28;20223;-34
2023/03/27 09:21:16;;;;;;;6.40;1.73;;;7.60;99.90;;;;;;5026563;28;20294;-34
2023/03/27 09:23:46;;;;;;;5.17;1.57;;;7.70;99.90;;;;;;5024628;28;20743;-34
2023/03/27 09:26:20;;;;;;;7.30;1.50;;;7.80;99.90;;;;;;5026145;28;20216;-34
2023/03/27 09:29:08;;;;;;;6.43;1.83;;;7.80;99.90;;;;;;5024605;28;20236;-34
2023/03/27 09:31:46;;;;;;;5.50;1.47;;;7.80;99.90;;;;;;5024680;28;20196;-34
2023/03/27 09:34:30;;;;;;;6.23;1.60;;;7.80;99.90;;;;;;5024433;28;20204;-34
2023/03/27 09:36:59;;;;;;;6.00;1.77;;;7.90;99.90;;;;;;5024425;28;20205;-34
2023/03/27 09:39:34;;;;;;;5.33;1.67;;;7.80;99.90;;;;;;5024136;28;20300;-34
2023/03/27 09:42:19;;;;;;;7.27;1.80;;;7.90;99.90;;;;;;5009052;28;20220;-34
2023/03/27 09:44:54;;;;;;;11.23;2.00;;;7.90;99.90;;;;;;5025738;28;20347;-34
2023/03/27 09:47:53;;;;;;;6.93;1.53;;;7.90;99.90;;;;;;5024420;28;20225;-33
2023/03/27 09:50:45;;;;;;;9.53;1.70;;;8.00;99.90;;;;;;5026320;28;20209;-34
2023/03/27 09:53:21;;;;;;;9.40;1.40;;;8.00;99.90;;;;;;5028253;28;20198;-34
2023/03/27 09:55:55;;;;;;;7.50;1.63;;;8.10;99.90;;;;;;5029477;28;20236;-34
2023/03/27 09:58:35;;;;;;;6.17;1.83;;;8.10;99.90;;;;;;5030273;28;20244;-33
2023/03/27 10:01:20;;;;;;;6.13;2.00;;;8.10;99.90;;;;;;5029297;28;20634;-33
2023/03/27 10:03:50;;;;;;;5.53;1.20;;;8.20;99.90;;;;;;5011959;28;20287;-34
2023/03/27 10:06:29;;;;;;;11.57;1.77;;;8.20;99.90;;;;;;5029608;28;20685;-34
2023/03/27 10:09:06;;;;;;;9.40;1.60;;;8.20;99.90;;;;;;5029270;28;20274;-34
2023/03/27 10:11:35;;;;;;;4.60;1.30;;;8.30;99.90;;;;;;5028845;28;20192;-34
2023/03/27 10:14:12;;;;;;;8.43;1.63;;;8.30;99.90;;;;;;5029030;28;20224;-34
2023/03/27 10:16:41;;;;;;;5.80;1.57;;;8.40;99.90;;;;;;5029341;28;20691;-33
2023/03/27 10:19:27;;;;;;;7.23;1.70;;;8.30;99.90;;;;;;5027725;28;20228;-34
2023/03/27 10:21:55;;;;;;;5.10;1.70;;;8.40;99.90;;;;;;5028129;28;20197;-34
2023/03/27 10:24:32;;;;;;;3.07;1.00;;;8.50;99.90;;;;;;5029081;28;20216;-34
2023/03/27 10:27:05;;;;;;;3.43;0.83;;;8.40;99.90;;;;;;5027495;28;20196;-34
2023/03/27 10:29:38;;;;;;;3.43;0.77;;;8.40;99.90;;;;;;5029396;28;20266;-34
2023/03/27 10:32:08;;;;;;;6.13;0.93;;;8.30;99.90;;;;;;5027418;28;20222;-34
2023/03/27 10:34:36;;;;;;;4.27;0.70;;;8.20;99.90;;;;;;5027356;28;20197;-34
2023/03/27 10:37:18;;;;;;;4.53;0.73;;;8.20;99.90;;;;;;5028853;28;20684;-33
2023/03/27 10:39:46;;;;;;;4.37;0.93;;;8.10;99.90;;;;;;5028739;28;20201;-34
2023/03/27 10:42:15;;;;;;;3.77;0.80;;;8.00;99.90;;;;;;5027399;28;20208;-34
2023/03/27 10:44:49;;;;;;;3.27;0.77;;;7.90;99.90;;;;;;5028447;28;20205;-34
2023/03/27 10:47:23;;;;;;;4.37;0.70;;;7.90;99.90;;;;;;5026647;28;20351;-34
2023/03/27 10:50:13;;;;;;;3.57;0.67;;;7.80;99.90;;;;;;5028981;28;20209;-34
2023/03/27 10:52:49;;;;;;;4.30;0.83;;;7.90;99.90;;;;;;5027074;28;20212;-33
2023/03/27 10:56:01;;;;;;;2.63;0.90;;;7.80;99.90;;;;;;5028565;28;20707;-34
2023/03/27 10:58:31;;;;;;;4.90;0.87;;;7.80;99.90;;;;;;5027556;28;20715;-34
2023/03/27 11:01:17;;;;;;;2.90;0.90;;;7.90;99.90;;;;;;5026549;28;20209;-34
2023/03/27 11:04:02;;;;;;;4.60;0.93;;;7.90;99.90;;;;;;5026786;28;20235;-34
2023/03/27 11:06:39;;;;;;;2.53;0.80;;;8.00;99.90;;;;;;5028085;28;20232;-34
2023/03/27 11:09:24;;;;;;;1.97;0.80;;;8.00;99.90;;;;;;5028237;28;20225;-34
2023/03/27 11:12:15;;;;;;;4.73;0.90;;;8.10;99.90;;;;;;5026599;28;20205;-34
2023/03/27 11:14:55;;;;;;;6.87;1.20;;;8.10;99.90;;;;;;5028020;28;20204;-34
2023/03/27 11:17:39;;;;;;;4.13;1.00;;;8.10;99.90;;;;;;5027985;28;20239;-34
2023/03/27 11:20:20;;;;;;;5.87;1.03;;;8.20;99.90;;;;;;5010627;28;20284;-34
2023/03/27 11:23:03;;;;;;;3.40;0.70;;;8.20;99.90;;;;;;5027101;28;20213;-34
2023/03/27 11:25:45;;;;;;;2.67;1.00;;;8.20;99.90;;;;;;5028243;28;20200;-34
2023/03/27 11:28:22;;;;;;;4.17;0.87;;;8.20;99.90;;;;;;5027898;28;20657;-33
2023/03/27 11:31:47;;;;;;;2.83;0.80;;;8.20;99.90;;;;;;5026324;28;20235;-34
2023/03/27 11:34:24;;;;;;;3.77;1.10;;;8.30;99.90;;;;;;5024935;28;20605;-34
2023/03/27 11:37:10;;;;;;;1.97;0.90;;;8.30;99.90;;;;;;5026511;28;20663;-34
2023/03/27 11:39:55;;;;;;;5.90;1.10;;;8.40;99.90;;;;;;5009937;28;20242;-34
2023/03/27 11:42:26;;;;;;;6.23;1.20;;;8.50;99.90;;;;;;5027671;28;20311;-34
2023/03/27 11:44:57;;;;;;;3.33;0.90;;;8.60;99.90;;;;;;5025815;28;20523;-35
2023/03/27 11:48:02;;;;;;;4.20;0.80;;;8.70;99.90;;;;;;5026837;28;20233;-34
2023/03/27 11:50:38;;;;;;;5.93;1.17;;;8.70;99.90;;;;;;5025468;28;20653;-34
2023/03/27 11:53:26;;;;;;;7.40;1.20;;;8.70;99.90;;;;;;5026822;28;20204;-34
2023/03/27 11:56:02;;;;;;;7.37;1.20;;;8.80;99.90;;;;;;5026631;28;20286;-33
2023/03/27 11:58:50;;;;;;;6.10;1.00;;;8.80;99.90;;;;;;5026717;28;20291;-34
2023/03/27 12:01:28;;;;;;;3.23;1.10;;;8.80;99.90;;;;;;5027029;28;20282;-34
2023/03/27 12:04:05;;;;;;;4.53;0.70;;;8.90;99.90;;;;;;5026978;28;20363;-34
2023/03/27 12:06:39;;;;;;;4.40;0.60;;;8.90;99.90;;;;;;5026624;28;20210;-35
2023/03/27 12:09:23;;;;;;;5.50;0.90;;;8.90;99.90;;;;;;5026494;28;20505;-34
2023/03/27 12:12:14;;;;;;;4.77;0.90;;;8.80;99.90;;;;;;5025389;28;20224;-34
2023/03/27 12:14:59;;;;;;;2.33;0.80;;;8.70;99.90;;;;;;5024884;28;20210;-34
2023/03/27 12:17:42;;;;;;;5.17;1.00;;;8.70;99.90;;;;;;5025277;28;20224;-34
2023/03/27 12:20:47;;;;;;;3.93;0.80;;;8.70;99.90;;;;;;5025510;28;20282;-34
2023/03/27 12:23:57;;;;;;;3.73;0.90;;;8.80;99.90;;;;;;5025034;28;20542;-34
2023/03/27 12:27:04;;;;;;;6.37;1.30;;;8.90;99.90;;;;;;5025269;28;20205;-34
2023/03/27 12:30:04;;;;;;;3.40;1.03;;;9.00;99.90;;;;;;5026674;28;20742;-34
2023/03/27 12:32:58;;;;;;;4.63;1.00;;;9.10;99.90;;;;;;5027037;28;20651;-34
2023/03/27 12:35:31;;;;;;;4.50;1.00;;;9.10;99.90;;;;;;5026392;28;20220;-33
2023/03/27 12:38:09;;;;;;;9.50;1.30;;;9.20;99.90;;;;;;5025318;28;20192;-34
2023/03/27 12:40:46;;;;;;;8.97;1.27;;;9.30;99.90;;;;;;5024876;28;20240;-34
2023/03/27 12:43:17;;;;;;;10.20;1.37;;;9.30;99.90;;;;;;5025380;28;20362;-34
2023/03/27 12:46:09;;;;;;;3.40;0.90;;;9.40;99.90;;;;;;5025088;28;20220;-35
2023/03/27 12:48:55;;;;;;;2.13;0.80;;;9.40;99.90;;;;;;5024926;28;20753;-34
2023/03/27 12:51:46;;;;;;;8.17;1.40;;;9.40;99.90;;;;;;5026388;28;20209;-34
2023/03/27 12:54:25;;;;;;;6.60;1.30;;;9.40;99.90;;;;;;5026131;28;20778;-34
2023/03/27 12:57:15;;;;;;;5.10;1.40;;;9.40;99.90;;;;;;5024653;28;20204;-34
2023/03/27 12:59:50;;;;;;;4.70;1.30;;;9.40;99.90;;;;;;5024827;28;20569;-34
2023/03/27 13:02:54;;;;;;;7.83;1.40;;;9.40;99.90;;;;;;5026211;28;20196;-34
2023/03/27 13:05:33;;;;;;;8.17;1.50;;;9.40;99.90;;;;;;5025952;28;20204;-34
2023/03/27 13:08:22;;;;;;;12.13;1.80;;;9.50;99.90;;;;;;5024766;28;20266;-33
2023/03/27 13:10:52;;;;;;;9.73;1.40;;;9.50;99.90;;;;;;5024762;28;20201;-34
2023/03/27 13:13:45;;;;;;;10.70;2.47;;;9.60;99.90;;;;;;5024697;28;20209;-34
2023/03/27 13:16:24;;;;;;;10.80;2.30;;;9.60;99.90;;;;;;5025380;28;20259;-34
2023/03/27 13:19:18;;;;;;;4.93;0.90;;;9.60;99.90;;;;;;5026183;28;20957;-34
2023/03/27 13:21:54;;;;;;;2.70;0.80;;;9.60;99.90;;;;;;5024866;28;20303;-34
2023/03/27 13:24:43;;;;;;;8.00;1.20;;;9.40;99.90;;;;;;5024874;28;20231;-34
2023/03/27 13:27:26;;;;;;;14.17;1.77;;;9.40;99.90;;;;;;5030386;28;20750;-34
2023/03/27 13:29:57;;;;;;;4.77;0.83;;;9.40;99.90;;;;;;5029874;28;20247;-34
2023/03/27 13:32:35;;;;;;;3.83;0.93;;;9.50;99.90;;;;;;5029812;28;20193;-34
2023/03/27 13:35:20;;;;;;;5.37;1.00;;;9.60;99.90;;;;;;5028554;28;20201;-34
2023/03/27 13:37:52;;;;;;;5.47;1.20;;;9.60;99.90;;;;;;5030063;28;20201;-34
2023/03/27 13:40:23;;;;;;;15.53;2.60;;;9.70;99.90;;;;;;5029877;28;20259;-34
2023/03/27 13:42:59;;;;;;;5.07;1.20;;;9.70;99.90;;;;;;5029716;28;20201;-34